createdAt,value
2018-02-24T00:00:40.554Z,95834.80
2018-02-24T00:03:09.594Z,95821.49
2018-02-24T00:05:37.865Z,95822.66
2018-02-24T00:08:09.338Z,95825.81
2018-02-24T00:10:37.617Z,95824.64
2018-02-24T00:13:05.897Z,95825.30
2018-02-24T00:15:34.162Z,95828.89
2018-02-24T00:18:02.428Z,95827.08
2018-02-24T00:20:30.688Z,95821.34
2018-02-24T00:22:58.970Z,95822.53
2018-02-24T00:25:27.246Z,95815.20
2018-02-24T00:27:55.537Z,95822.00
2018-02-24T00:30:23.795Z,95821.51
2018-02-24T00:32:52.836Z,95818.23
2018-02-24T00:35:21.099Z,95821.05
2018-02-24T00:37:50.150Z,95809.89
2018-02-24T00:40:18.425Z,95815.26
2018-02-24T00:42:46.710Z,95812.23
2018-02-24T00:45:14.998Z,95811.49
2018-02-24T00:47:43.260Z,95809.75
2018-02-24T00:50:12.300Z,95813.86
2018-02-24T00:52:40.577Z,95813.81
2018-02-24T00:55:08.852Z,95815.45
2018-02-24T00:57:37.134Z,95814.29
2018-02-24T01:00:06.176Z,95812.56
2018-02-24T01:02:34.449Z,95810.45
2018-02-24T01:05:02.729Z,95814.96
2018-02-24T01:07:31.012Z,95818.11
2018-02-24T01:09:59.293Z,95817.06
2018-02-24T01:12:28.338Z,95810.35
2018-02-24T01:14:56.628Z,95816.75
2018-02-24T01:17:24.888Z,95822.17
2018-02-24T01:19:54.122Z,95822.22
2018-02-24T01:22:22.391Z,95819.39
2018-02-24T01:24:50.675Z,95823.55
2018-02-24T01:27:18.943Z,95827.38
2018-02-24T01:29:47.993Z,95821.09
2018-02-24T01:32:16.281Z,95824.42
2018-02-24T01:34:44.561Z,95827.02
2018-02-24T01:37:12.836Z,95825.27
2018-02-24T01:39:41.123Z,95821.80
2018-02-24T01:42:09.388Z,95826.75
2018-02-24T01:44:38.420Z,95825.36
2018-02-24T01:47:06.688Z,95821.55
2018-02-24T01:49:35.741Z,95829.37
2018-02-24T01:52:04.015Z,95818.42
2018-02-24T01:54:32.294Z,95821.07
2018-02-24T01:57:00.570Z,95819.02
2018-02-24T01:59:28.863Z,95818.09
2018-02-24T02:01:57.266Z,95819.50
2018-02-24T02:04:25.553Z,95815.82
2018-02-24T02:06:53.816Z,95812.17
2018-02-24T02:09:22.851Z,95814.83
2018-02-24T02:11:51.112Z,95815.64
2018-02-24T02:14:20.148Z,95812.12
2018-02-24T02:16:48.416Z,95809.78
2018-02-24T02:19:16.864Z,95805.38
2018-02-24T02:21:45.132Z,95801.34
2018-02-24T02:24:13.427Z,95808.42
2018-02-24T02:26:41.702Z,95803.53
2018-02-24T02:29:09.990Z,95800.19
2018-02-24T02:31:38.426Z,95810.31
2018-02-24T02:34:06.720Z,95807.61
2018-02-24T02:36:34.990Z,95811.91
2018-02-24T02:39:03.272Z,95803.96
2018-02-24T02:41:31.540Z,95801.22
2018-02-24T02:43:59.831Z,95800.02
2018-02-24T02:46:28.094Z,95802.31
2018-02-24T02:48:56.374Z,95800.35
2018-02-24T02:51:24.636Z,95809.88
2018-02-24T02:53:53.683Z,95814.89
2018-02-24T02:56:21.952Z,95810.19
2018-02-24T02:58:50.234Z,95816.84
2018-02-24T03:01:26.087Z,95822.52
2018-02-24T03:03:55.120Z,95816.11
2018-02-24T03:06:23.442Z,95814.41
2018-02-24T03:08:51.717Z,95822.52
2018-02-24T03:11:19.988Z,95825.23
2018-02-24T03:13:48.270Z,95831.54
2018-02-24T03:16:16.549Z,95829.84
2018-02-24T03:18:45.594Z,95842.27
2018-02-24T03:21:15.796Z,95849.31
2018-02-24T03:23:44.086Z,95847.27
2018-02-24T03:26:12.354Z,95852.75
2018-02-24T03:28:41.387Z,95849.61
2018-02-24T03:31:09.658Z,95840.42
2018-02-24T03:33:38.733Z,95850.70
2018-02-24T03:36:07.022Z,95850.50
2018-02-24T03:38:36.274Z,95845.95
2018-02-24T03:41:04.562Z,95846.80
2018-02-24T03:43:32.841Z,95853.42
2018-02-24T03:46:07.729Z,95854.85
2018-02-24T03:48:36.002Z,95860.36
2018-02-24T03:51:04.293Z,95862.86
2018-02-24T03:53:32.566Z,95854.31
2018-02-24T03:56:00.845Z,95861.96
2018-02-24T03:58:29.321Z,95864.67
2018-02-24T04:00:58.369Z,95863.61
2018-02-24T04:03:27.336Z,95862.73
2018-02-24T04:05:56.384Z,95866.70
2018-02-24T04:08:24.648Z,95871.62
2018-02-24T04:10:52.925Z,95874.67
2018-02-24T04:13:21.960Z,95875.26
2018-02-24T04:15:50.242Z,95872.70
2018-02-24T04:18:18.503Z,95871.16
2018-02-24T04:20:47.552Z,95869.63
2018-02-24T04:23:15.805Z,95878.61
2018-02-24T04:25:44.089Z,95874.41
2018-02-24T04:28:13.125Z,95874.77
2018-02-24T04:30:42.108Z,95888.29
2018-02-24T04:33:11.326Z,95886.33
2018-02-24T04:35:39.602Z,95895.45
2018-02-24T04:38:07.865Z,95894.09
2018-02-24T04:40:36.140Z,95895.22
2018-02-24T04:43:04.404Z,95905.98
2018-02-24T04:45:32.721Z,95900.78
2018-02-24T04:48:00.989Z,95902.26
2018-02-24T04:50:29.280Z,95912.94
2018-02-24T04:52:57.562Z,95914.84
2018-02-24T04:55:25.845Z,95913.56
2018-02-24T04:57:54.124Z,95925.97
2018-02-24T05:00:22.407Z,95923.13
2018-02-24T05:02:50.671Z,95929.30
2018-02-24T05:05:19.708Z,95924.61
2018-02-24T05:07:47.986Z,95919.88
2018-02-24T05:10:16.278Z,95921.77
2018-02-24T05:12:44.549Z,95920.41
2018-02-24T05:15:12.830Z,95915.12
2018-02-24T05:17:41.874Z,95916.31
2018-02-24T05:20:10.144Z,95909.53
2018-02-24T05:22:38.427Z,95919.99
2018-02-24T05:25:06.698Z,95926.12
2018-02-24T05:27:35.729Z,95927.70
2018-02-24T05:30:04.018Z,95929.03
2018-02-24T05:32:32.290Z,95936.41
2018-02-24T05:35:01.334Z,95927.73
2018-02-24T05:37:29.590Z,95939.42
2018-02-24T05:39:57.875Z,95932.16
2018-02-24T05:42:26.914Z,95936.38
2018-02-24T05:44:55.180Z,95939.27
2018-02-24T05:47:23.448Z,95937.84
2018-02-24T05:49:52.496Z,95943.23
2018-02-24T05:52:32.397Z,95936.81
2018-02-24T05:55:00.669Z,95943.39
2018-02-24T05:57:28.931Z,95948.86
2018-02-24T05:59:57.211Z,95945.92
2018-02-24T06:02:26.286Z,95951.94
2018-02-24T06:04:55.324Z,95960.43
2018-02-24T06:07:23.597Z,95961.48
2018-02-24T06:09:51.877Z,95959.55
2018-02-24T06:12:20.914Z,95974.67
2018-02-24T06:14:49.195Z,95974.27
2018-02-24T06:17:17.478Z,95976.59
2018-02-24T06:19:45.762Z,95979.61
2018-02-24T06:22:14.040Z,95983.86
2018-02-24T06:24:42.326Z,95983.66
2018-02-24T06:27:11.357Z,95986.09
2018-02-24T06:29:39.617Z,95993.35
2018-02-24T06:32:08.647Z,95994.58
2018-02-24T06:34:36.912Z,95998.14
2018-02-24T06:37:05.188Z,96000.95
2018-02-24T06:39:34.223Z,96002.18
2018-02-24T06:42:02.498Z,96002.06
2018-02-24T06:44:30.754Z,96004.02
2018-02-24T06:47:00.027Z,96012.33
2018-02-24T06:49:28.292Z,96009.85
2018-02-24T06:51:56.577Z,96006.33
2018-02-24T06:54:24.865Z,96003.23
2018-02-24T06:56:53.320Z,96012.10
2018-02-24T06:59:21.580Z,96009.44
2018-02-24T07:01:49.857Z,96007.05
2018-02-24T07:04:18.125Z,96013.22
2018-02-24T07:06:46.412Z,96016.71
2018-02-24T07:09:14.686Z,96021.63
2018-02-24T07:11:43.716Z,96027.86
2018-02-24T07:14:12.000Z,96040.05
2018-02-24T07:16:40.287Z,96026.01
2018-02-24T07:19:08.571Z,96032.64
2018-02-24T07:21:36.844Z,96031.86
2018-02-24T07:24:05.881Z,96028.86
2018-02-24T07:26:34.166Z,96033.73
2018-02-24T07:29:02.430Z,96031.41
2018-02-24T07:31:31.476Z,96028.56
2018-02-24T07:33:59.748Z,96032.80
2018-02-24T07:36:28.025Z,96038.47
2018-02-24T07:39:01.429Z,96031.70
2018-02-24T07:41:33.209Z,96031.95
2018-02-24T07:44:01.482Z,96028.89
2018-02-24T07:46:30.531Z,96031.27
2018-02-24T07:48:58.798Z,96032.88
2018-02-24T07:51:27.068Z,96034.55
2018-02-24T07:53:55.344Z,96032.44
2018-02-24T07:56:25.293Z,96033.94
2018-02-24T07:58:53.572Z,96024.72
2018-02-24T08:01:22.618Z,96029.34
2018-02-24T08:03:51.791Z,96025.80
2018-02-24T08:06:20.069Z,96026.97
2018-02-24T08:08:49.092Z,96029.91
2018-02-24T08:11:17.373Z,96021.59
2018-02-24T08:13:45.636Z,96028.00
2018-02-24T08:16:13.900Z,96030.08
2018-02-24T08:18:42.169Z,96026.77
2018-02-24T08:21:10.431Z,96022.52
2018-02-24T08:23:38.701Z,96023.48
2018-02-24T08:26:07.756Z,96036.41
2018-02-24T08:28:37.944Z,96042.70
2018-02-24T08:31:07.005Z,96035.02
2018-02-24T08:33:35.268Z,96041.70
2018-02-24T08:36:04.303Z,96036.13
2018-02-24T08:38:32.563Z,96027.44
2018-02-24T08:41:00.847Z,96031.04
2018-02-24T08:43:29.118Z,96023.82
2018-02-24T08:45:57.394Z,96031.97
2018-02-24T08:48:26.433Z,96041.41
2018-02-24T08:50:54.714Z,96035.28
2018-02-24T08:53:22.982Z,96030.77
2018-02-24T08:55:51.260Z,96029.84
2018-02-24T08:58:20.301Z,96037.30
2018-02-24T09:00:48.573Z,96031.30
2018-02-24T09:03:16.850Z,96025.86
2018-02-24T09:05:45.906Z,96035.77
2018-02-24T09:08:14.170Z,96038.37
2018-02-24T09:10:42.461Z,96025.25
2018-02-24T09:13:10.720Z,96031.19
2018-02-24T09:15:39.764Z,96033.42
2018-02-24T09:18:08.037Z,96031.41
2018-02-24T09:20:36.307Z,96033.94
2018-02-24T09:23:05.342Z,96038.81
2018-02-24T09:25:33.612Z,96033.16
2018-02-24T09:28:01.886Z,96045.39
2018-02-24T09:30:30.924Z,96033.83
2018-02-24T09:32:59.200Z,96037.89
2018-02-24T09:35:27.481Z,96040.56
2018-02-24T09:37:55.762Z,96038.69
2018-02-24T09:40:24.033Z,96042.39
2018-02-24T09:42:53.075Z,96049.14
2018-02-24T09:45:21.825Z,96047.38
2018-02-24T09:47:50.095Z,96048.54
2018-02-24T09:50:18.394Z,96050.55
2018-02-24T09:52:46.667Z,96052.70
2018-02-24T09:55:14.944Z,96050.89
2018-02-24T09:57:43.234Z,96066.83
2018-02-24T10:00:11.505Z,96063.80
2018-02-24T10:02:39.779Z,96065.15
2018-02-24T10:05:08.049Z,96065.58
2018-02-24T10:07:37.080Z,96070.26
2018-02-24T10:10:05.352Z,96066.65
2018-02-24T10:12:34.393Z,96061.86
2018-02-24T10:15:02.665Z,96064.83
2018-02-24T10:17:30.929Z,96070.63
2018-02-24T10:19:59.962Z,96071.64
2018-02-24T10:22:28.242Z,96064.78
2018-02-24T10:24:56.561Z,96064.39
2018-02-24T10:27:24.797Z,96059.25
2018-02-24T10:29:53.819Z,96070.52
2018-02-24T10:32:22.117Z,96065.00
2018-02-24T10:34:50.388Z,96071.33
2018-02-24T10:37:18.655Z,96076.98
2018-02-24T10:39:46.920Z,96063.78
2018-02-24T10:42:15.200Z,96077.44
2018-02-24T10:44:43.471Z,96072.61
2018-02-24T10:47:11.734Z,96081.27
2018-02-24T10:49:40.416Z,96080.05
2018-02-24T10:52:09.453Z,96078.48
2018-02-24T10:54:37.713Z,96085.34
2018-02-24T10:57:06.744Z,96090.29
2018-02-24T10:59:35.008Z,96084.55
2018-02-24T11:02:04.036Z,96088.63
2018-02-24T11:04:32.296Z,96086.08
2018-02-24T11:07:01.328Z,96080.91
2018-02-24T11:09:29.580Z,96076.19
2018-02-24T11:11:57.849Z,96076.30
2018-02-24T11:14:26.115Z,96076.66
2018-02-24T11:16:54.383Z,96076.78
2018-02-24T11:19:22.646Z,96063.05
2018-02-24T11:21:51.677Z,96064.75
2018-02-24T11:24:19.937Z,96067.51
2018-02-24T11:26:48.982Z,96061.68
2018-02-24T11:29:17.237Z,96054.64
2018-02-24T11:31:46.289Z,96053.86
2018-02-24T11:34:14.547Z,96050.55
2018-02-24T11:36:42.829Z,96046.92
2018-02-24T11:39:11.099Z,96045.28
2018-02-24T11:41:39.370Z,96039.20
2018-02-24T11:44:07.625Z,96054.68
2018-02-24T11:46:36.675Z,96062.87
2018-02-24T11:49:04.946Z,96053.66
2018-02-24T11:51:33.245Z,96054.93
2018-02-24T11:54:01.504Z,96060.97
2018-02-24T11:56:29.789Z,96052.44
2018-02-24T11:58:58.062Z,96050.52
2018-02-24T12:01:26.320Z,96044.73
2018-02-24T12:03:55.359Z,96046.80
2018-02-24T12:06:23.617Z,96047.22
2018-02-24T12:08:52.657Z,96045.33
2018-02-24T12:11:21.690Z,96045.62
2018-02-24T12:13:51.585Z,96056.26
2018-02-24T12:16:19.849Z,96043.09
2018-02-24T12:18:48.116Z,96048.91
2018-02-24T12:21:16.405Z,96053.22
2018-02-24T12:23:45.463Z,96065.58
2018-02-24T12:26:13.729Z,96053.30
2018-02-24T12:28:42.235Z,96061.42
2018-02-24T12:31:14.113Z,96058.64
2018-02-24T12:33:42.551Z,96068.42
2018-02-24T12:36:11.588Z,96065.23
2018-02-24T12:38:39.865Z,96048.88
2018-02-24T12:41:08.892Z,96047.27
2018-02-24T12:43:37.243Z,96052.34
2018-02-24T12:46:05.457Z,96041.38
2018-02-24T12:48:34.515Z,96048.91
2018-02-24T12:51:02.787Z,96037.19
2018-02-24T12:53:31.049Z,96042.92
2018-02-24T12:55:59.348Z,96039.86
2018-02-24T12:58:27.620Z,96037.09
2018-02-24T13:00:55.887Z,96047.84
2018-02-24T13:03:24.916Z,96039.56
2018-02-24T13:05:53.181Z,96037.02
2018-02-24T13:08:22.277Z,96046.41
2018-02-24T13:10:50.539Z,96053.02
2018-02-24T13:13:18.813Z,96039.32
2018-02-24T13:15:47.088Z,96053.09
2018-02-24T13:18:15.400Z,96055.59
2018-02-24T13:20:43.656Z,96045.88
2018-02-24T13:23:11.923Z,96036.86
2018-02-24T13:25:40.958Z,96037.20
2018-02-24T13:28:09.231Z,96036.20
2018-02-24T13:30:38.264Z,96052.98
2018-02-24T13:33:07.130Z,96040.75
2018-02-24T13:35:36.154Z,96046.46
2018-02-24T13:38:04.432Z,96066.81
2018-02-24T13:40:33.464Z,96046.72
2018-02-24T13:43:01.723Z,96040.64
2018-02-24T13:45:30.755Z,96041.58
2018-02-24T13:47:59.025Z,96048.36
2018-02-24T13:50:28.112Z,96047.70
2018-02-24T13:52:57.233Z,96057.97
2018-02-24T13:55:26.252Z,96045.12
2018-02-24T13:57:54.516Z,96050.13
2018-02-24T14:00:23.544Z,96051.00
2018-02-24T14:02:51.880Z,96047.84
2018-02-24T14:05:20.117Z,96064.23
2018-02-24T14:07:48.415Z,96070.30
2018-02-24T14:10:16.668Z,96063.38
2018-02-24T14:12:44.941Z,96066.64
2018-02-24T14:15:13.211Z,96064.96
2018-02-24T14:17:41.520Z,96055.64
2018-02-24T14:20:09.784Z,96058.38
2018-02-24T14:22:38.049Z,96055.56
2018-02-24T14:25:06.331Z,96052.66
2018-02-24T14:27:34.593Z,96051.80
2018-02-24T14:30:03.665Z,96053.84
2018-02-24T14:32:31.946Z,96049.00
2018-02-24T14:35:00.227Z,96063.78
2018-02-24T14:37:28.497Z,96051.27
2018-02-24T14:39:56.795Z,96056.52
2018-02-24T14:42:25.050Z,96043.66
2018-02-24T14:44:54.084Z,96055.92
2018-02-24T14:47:22.366Z,96052.89
2018-02-24T14:49:50.644Z,96053.03
2018-02-24T14:52:18.908Z,96042.09
2018-02-24T14:54:47.958Z,96049.55
2018-02-24T14:57:16.226Z,96040.23
2018-02-24T14:59:44.497Z,96051.13
2018-02-24T15:02:13.529Z,96048.22
2018-02-24T15:04:41.813Z,96054.39
2018-02-24T15:07:10.092Z,96059.19
2018-02-24T15:09:38.380Z,96062.20
2018-02-24T15:12:06.637Z,96055.73
2018-02-24T15:14:34.939Z,96061.95
2018-02-24T15:17:03.256Z,96058.97
2018-02-24T15:19:32.264Z,96052.71
2018-02-24T15:22:00.532Z,96057.70
2018-02-24T15:24:29.569Z,96055.90
2018-02-24T15:26:57.841Z,96053.73
2018-02-24T15:29:26.110Z,96052.82
2018-02-24T15:31:55.148Z,96055.95
2018-02-24T15:34:23.413Z,96047.18
2018-02-24T15:36:52.449Z,96056.64
2018-02-24T15:39:20.721Z,96050.89
2018-02-24T15:41:48.985Z,96067.60
2018-02-24T15:44:18.384Z,96060.07
2018-02-24T15:46:46.653Z,96064.99
2018-02-24T15:49:14.916Z,96063.73
2018-02-24T15:51:43.191Z,96056.27
2018-02-24T15:54:12.233Z,96060.41
2018-02-24T15:56:40.498Z,96061.22
2018-02-24T15:59:08.779Z,96071.23
2018-02-24T16:01:37.817Z,96063.38
2018-02-24T16:04:06.094Z,96072.52
2018-02-24T16:06:34.361Z,96069.26
2018-02-24T16:09:03.411Z,96066.31
2018-02-24T16:11:31.680Z,96061.00
2018-02-24T16:13:59.954Z,96066.60
2018-02-24T16:16:28.223Z,96067.62
2018-02-24T16:18:57.277Z,96069.27
2018-02-24T16:21:25.561Z,96077.52
2018-02-24T16:23:53.870Z,96080.97
2018-02-24T16:26:22.156Z,96076.69
2018-02-24T16:28:50.448Z,96080.17
2018-02-24T16:31:18.712Z,96081.67
2018-02-24T16:33:58.253Z,96085.30
2018-02-24T16:36:26.521Z,96083.25
2018-02-24T16:38:59.541Z,96082.83
2018-02-24T16:41:27.809Z,96091.95
2018-02-24T16:43:56.080Z,96089.73
2018-02-24T16:46:24.350Z,96096.16
2018-02-24T16:48:52.620Z,96093.75
2018-02-24T16:51:20.893Z,96089.90
2018-02-24T16:53:49.168Z,96101.59
2018-02-24T16:56:17.437Z,96096.17
2018-02-24T16:58:46.480Z,96098.56
2018-02-24T17:01:15.665Z,96083.96
2018-02-24T17:03:43.951Z,96097.33
2018-02-24T17:06:12.241Z,96095.77
2018-02-24T17:08:41.333Z,96102.58
2018-02-24T17:11:09.599Z,96109.34
2018-02-24T17:13:38.641Z,96106.80
2018-02-24T17:16:06.914Z,96113.87
2018-02-24T17:18:35.176Z,96114.11
2018-02-24T17:21:04.222Z,96108.20
2018-02-24T17:23:32.496Z,96112.48
2018-02-24T17:26:00.764Z,96111.17
2018-02-24T17:28:29.792Z,96103.97
2018-02-24T17:30:58.057Z,96111.30
2018-02-24T17:33:27.085Z,96114.92
2018-02-24T17:35:55.373Z,96118.00
2018-02-24T17:38:23.718Z,96120.67
2018-02-24T17:40:52.049Z,96115.91
2018-02-24T17:43:20.948Z,96118.31
2018-02-24T17:45:49.213Z,96121.58
2018-02-24T17:48:19.175Z,96123.53
2018-02-24T17:50:47.453Z,96130.27
2018-02-24T17:53:15.721Z,96124.71
2018-02-24T17:55:44.769Z,96127.02
2018-02-24T17:58:13.024Z,96127.38
2018-02-24T18:00:41.310Z,96133.11
2018-02-24T18:03:10.332Z,96132.78
2018-02-24T18:05:38.613Z,96137.89
2018-02-24T18:08:06.887Z,96140.90
2018-02-24T18:10:35.925Z,96136.96
2018-02-24T18:13:04.189Z,96143.69
2018-02-24T18:15:32.465Z,96133.15
2018-02-24T18:18:01.489Z,96137.16
2018-02-24T18:20:29.756Z,96131.64
2018-02-24T18:23:00.474Z,96144.94
2018-02-24T18:25:28.744Z,96143.38
2018-02-24T18:27:57.014Z,96136.52
2018-02-24T18:30:25.284Z,96138.55
2018-02-24T18:32:53.553Z,96138.72
2018-02-24T18:35:22.598Z,96140.06
2018-02-24T18:37:50.865Z,96132.14
2018-02-24T18:40:19.131Z,96135.95
2018-02-24T18:42:48.174Z,96140.22
2018-02-24T18:45:16.454Z,96141.85
2018-02-24T18:47:44.722Z,96148.88
2018-02-24T18:50:13.770Z,96151.04
2018-02-24T18:52:42.041Z,96143.78
2018-02-24T18:55:18.069Z,96157.47
2018-02-24T18:57:46.348Z,96154.55
2018-02-24T19:00:14.626Z,96156.42
2018-02-24T19:02:42.913Z,96147.58
2018-02-24T19:05:11.183Z,96160.36
2018-02-24T19:07:39.458Z,96163.57
2018-02-24T19:10:07.720Z,96164.08
2018-02-24T19:12:36.769Z,96163.83
2018-02-24T19:15:05.031Z,96161.86
2018-02-24T19:17:33.315Z,96168.92
2018-02-24T19:20:01.597Z,96175.22
2018-02-24T19:22:29.881Z,96173.73
2018-02-24T19:24:59.847Z,96171.94
2018-02-24T19:27:28.846Z,96168.93
2018-02-24T19:29:57.148Z,96187.41
2018-02-24T19:32:25.393Z,96179.09
2018-02-24T19:34:53.653Z,96186.12
2018-02-24T19:37:21.957Z,96194.83
2018-02-24T19:39:50.998Z,96191.40
2018-02-24T19:42:19.265Z,96196.20
2018-02-24T19:44:47.555Z,96193.81
2018-02-24T19:47:16.613Z,96194.39
2018-02-24T19:49:44.894Z,96198.66
2018-02-24T19:52:13.181Z,96195.60
2018-02-24T19:54:41.454Z,96196.01
2018-02-24T19:57:10.616Z,96200.16
2018-02-24T19:59:39.653Z,96195.55
2018-02-24T20:02:07.929Z,96194.23
2018-02-24T20:04:36.966Z,96200.48
2018-02-24T20:07:05.233Z,96194.55
2018-02-24T20:09:33.509Z,96193.99
2018-02-24T20:12:02.541Z,96197.05
2018-02-24T20:14:30.845Z,96204.95
2018-02-24T20:16:59.116Z,96199.35
2018-02-24T20:19:27.405Z,96205.77
2018-02-24T20:21:55.675Z,96205.13
2018-02-24T20:24:23.948Z,96201.62
2018-02-24T20:26:52.986Z,96210.14
2018-02-24T20:29:21.274Z,96198.04
2018-02-24T20:31:49.541Z,96205.81
2018-02-24T20:34:18.568Z,96214.59
2018-02-24T20:36:46.838Z,96220.39
2018-02-24T20:39:15.118Z,96221.82
2018-02-24T20:41:44.150Z,96211.54
2018-02-24T20:44:12.415Z,96223.17
2018-02-24T20:46:40.691Z,96223.94
2018-02-24T20:49:08.965Z,96218.61
2018-02-24T20:51:37.232Z,96220.45
2018-02-24T20:54:05.504Z,96228.20
2018-02-24T20:56:33.769Z,96215.34
2018-02-24T20:59:02.049Z,96225.68
2018-02-24T21:01:30.316Z,96235.75
2018-02-24T21:03:58.594Z,96230.55
2018-02-24T21:06:26.857Z,96245.09
2018-02-24T21:08:55.124Z,96237.80
2018-02-24T21:11:23.389Z,96243.37
2018-02-24T21:13:51.665Z,96246.25
2018-02-24T21:16:20.714Z,96247.12
2018-02-24T21:18:48.989Z,96250.29
2018-02-24T21:21:17.254Z,96246.84
2018-02-24T21:23:46.307Z,96249.66
2018-02-24T21:26:14.581Z,96243.92
2018-02-24T21:28:42.849Z,96234.07
2018-02-24T21:31:11.119Z,96234.23
2018-02-24T21:33:40.178Z,96237.06
2018-02-24T21:36:08.453Z,96241.52
2018-02-24T21:38:36.727Z,96240.39
2018-02-24T21:41:05.004Z,96244.41
2018-02-24T21:43:33.270Z,96248.23
2018-02-24T21:46:02.416Z,96244.77
2018-02-24T21:48:30.691Z,96254.59
2018-02-24T21:50:58.973Z,96250.86
2018-02-24T21:53:28.015Z,96253.47
2018-02-24T21:55:56.290Z,96260.80
2018-02-24T21:58:24.548Z,96258.77
2018-02-24T22:00:53.596Z,96261.64
2018-02-24T22:03:21.857Z,96257.77
2018-02-24T22:05:50.140Z,96253.98
2018-02-24T22:08:18.404Z,96278.12
2018-02-24T22:10:47.439Z,96267.21
2018-02-24T22:13:15.709Z,96272.41
2018-02-24T22:15:44.744Z,96273.91
2018-02-24T22:18:13.004Z,96277.97
2018-02-24T22:20:42.057Z,96276.73
2018-02-24T22:23:10.353Z,96275.05
2018-02-24T22:25:38.628Z,96281.83
2018-02-24T22:28:06.891Z,96280.06
2018-02-24T22:30:35.168Z,96279.30
2018-02-24T22:33:04.214Z,96270.41
2018-02-24T22:35:32.484Z,96282.19
2018-02-24T22:38:00.751Z,96278.18
2018-02-24T22:40:29.796Z,96272.52
2018-02-24T22:42:58.066Z,96275.80
2018-02-24T22:45:26.343Z,96269.41
2018-02-24T22:48:00.235Z,96279.09
2018-02-24T22:50:28.522Z,96282.70
2018-02-24T22:52:56.793Z,96287.25
2018-02-24T22:55:25.062Z,96299.98
2018-02-24T22:57:53.346Z,96302.81
2018-02-24T23:00:21.603Z,96299.78
2018-02-24T23:02:49.879Z,96289.64
2018-02-24T23:05:18.905Z,96288.92
2018-02-24T23:07:47.178Z,96292.03
2018-02-24T23:10:15.435Z,96283.42
2018-02-24T23:12:43.722Z,96283.16
2018-02-24T23:15:11.992Z,96293.90
2018-02-24T23:17:40.272Z,96293.59
2018-02-24T23:20:08.534Z,96286.66
2018-02-24T23:22:36.818Z,96286.32
2018-02-24T23:25:05.077Z,96289.80
2018-02-24T23:27:34.121Z,96289.30
2018-02-24T23:30:02.391Z,96284.87
2018-02-24T23:32:30.661Z,96290.46
2018-02-24T23:34:59.726Z,96287.72
2018-02-24T23:37:28.009Z,96287.23
2018-02-24T23:39:56.277Z,96281.80
2018-02-24T23:42:24.560Z,96280.73
2018-02-24T23:44:52.837Z,96277.17
2018-02-24T23:47:21.880Z,96272.98
2018-02-24T23:49:50.153Z,96283.06
2018-02-24T23:52:18.440Z,96274.16
2018-02-24T23:54:46.702Z,96282.26
2018-02-24T23:57:15.754Z,96281.05
2018-02-24T23:59:44.026Z,96278.58
